createdAt,value
2023-04-15T00:01:23.625Z,10.33
2023-04-15T00:06:27.084Z,11.10
2023-04-15T00:11:31.011Z,10.20
2023-04-15T00:16:33.290Z,11.00
2023-04-15T00:21:36.870Z,10.60
2023-04-15T00:26:39.304Z,11.27
2023-04-15T00:31:41.379Z,10.87
2023-04-15T00:36:44.835Z,11.77
2023-04-15T00:41:46.740Z,12.47
2023-04-15T00:46:50.908Z,11.90
2023-04-15T00:51:57.333Z,11.87
2023-04-15T00:56:59.720Z,13.63
2023-04-15T01:02:01.931Z,14.20
2023-04-15T01:07:05.306Z,13.70
2023-04-15T01:12:08.080Z,15.43
2023-04-15T01:17:10.584Z,14.53
2023-04-15T01:22:14.530Z,15.70
2023-04-15T01:27:18.073Z,17.83
2023-04-15T01:32:20.329Z,17.00
2023-04-15T01:37:22.139Z,16.30
2023-04-15T01:42:26.449Z,16.37
2023-04-15T01:47:28.547Z,17.07
2023-04-15T01:52:30.555Z,15.90
2023-04-15T01:57:34.093Z,16.43
2023-04-15T02:02:36.266Z,18.13
2023-04-15T02:07:38.398Z,17.63
2023-04-15T02:12:41.877Z,18.33
2023-04-15T02:17:44.112Z,17.97
2023-04-15T02:22:45.825Z,18.80
2023-04-15T02:27:49.022Z,19.70
2023-04-15T02:32:51.045Z,18.27
2023-04-15T02:37:53.136Z,20.80
2023-04-15T02:42:56.619Z,19.00
2023-04-15T02:47:58.829Z,21.47
2023-04-15T02:53:00.852Z,20.90
2023-04-15T02:58:04.677Z,20.77
2023-04-15T03:03:07.088Z,19.60
2023-04-15T03:08:09.352Z,20.63
2023-04-15T03:13:12.602Z,21.90
2023-04-15T03:18:14.805Z,20.97
2023-04-15T03:23:16.850Z,20.33
2023-04-15T03:28:20.399Z,22.83
2023-04-15T03:33:22.512Z,22.03
2023-04-15T03:38:24.255Z,23.17
2023-04-15T03:43:27.705Z,21.63
2023-04-15T03:48:29.752Z,21.13
2023-04-15T03:53:31.854Z,23.03
2023-04-15T03:58:35.240Z,21.37
2023-04-15T04:03:37.528Z,21.43
2023-04-15T04:08:39.333Z,18.63
2023-04-15T04:13:42.422Z,21.70
2023-04-15T04:18:44.341Z,20.93
2023-04-15T04:23:46.191Z,20.27
2023-04-15T04:28:49.764Z,19.83
2023-04-15T04:33:51.826Z,19.47
2023-04-15T04:38:54.479Z,19.30
2023-04-15T04:43:57.990Z,18.83
2023-04-15T04:49:00.188Z,19.47
2023-04-15T04:54:03.698Z,18.00
2023-04-15T04:59:07.336Z,18.43
2023-04-15T05:04:09.606Z,17.60
2023-04-15T05:09:11.478Z,18.07
2023-04-15T05:14:14.986Z,17.50
2023-04-15T05:19:17.285Z,16.30
2023-04-15T05:24:19.707Z,16.70
2023-04-15T05:29:23.115Z,18.53
2023-04-15T05:34:25.304Z,17.83
2023-04-15T05:39:27.444Z,18.23
2023-04-15T05:44:30.917Z,18.03
2023-04-15T05:49:32.654Z,18.83
2023-04-15T05:54:34.631Z,17.43
2023-04-15T05:59:37.689Z,16.57
2023-04-15T06:04:39.458Z,17.00
2023-04-15T06:09:42.250Z,16.70
2023-04-15T06:14:45.865Z,14.80
2023-04-15T06:19:47.813Z,14.10
2023-04-15T06:24:50.838Z,13.10
2023-04-15T06:29:54.466Z,12.60
2023-04-15T06:34:56.622Z,11.87
2023-04-15T06:39:58.764Z,9.93
2023-04-15T06:45:05.996Z,12.10
2023-04-15T06:50:09.124Z,10.90
2023-04-15T06:55:12.405Z,10.10
2023-04-15T07:00:16.353Z,9.20
2023-04-15T07:05:18.713Z,9.13
2023-04-15T07:10:21.061Z,8.63
2023-04-15T07:15:24.605Z,8.17
2023-04-15T07:20:26.608Z,8.00
2023-04-15T07:25:28.427Z,8.03
2023-04-15T07:30:31.867Z,7.70
2023-04-15T07:35:33.654Z,7.40
2023-04-15T07:40:35.706Z,7.33
2023-04-15T07:45:39.305Z,7.40
2023-04-15T07:50:41.427Z,7.53
2023-04-15T07:55:43.573Z,7.57
2023-04-15T08:00:47.187Z,7.13
2023-04-15T08:05:48.899Z,7.57
2023-04-15T08:10:52.597Z,7.30
2023-04-15T08:16:16.500Z,7.90
2023-04-15T08:21:20.054Z,9.07
2023-04-15T08:26:21.895Z,8.07
2023-04-15T08:31:27.286Z,9.00
2023-04-15T08:36:29.353Z,9.10
2023-04-15T08:41:39.328Z,9.37
2023-04-15T08:46:42.630Z,9.07
2023-04-15T08:51:45.428Z,9.00
2023-04-15T08:56:48.443Z,9.60
2023-04-15T09:01:52.103Z,10.03
2023-04-15T09:06:54.357Z,10.10
2023-04-15T09:11:57.066Z,9.60
2023-04-15T09:17:02.036Z,9.63
2023-04-15T09:22:04.685Z,8.93
2023-04-15T09:27:07.819Z,9.67
2023-04-15T09:32:13.317Z,8.97
2023-04-15T09:37:31.354Z,8.77
2023-04-15T09:42:34.825Z,8.17
2023-04-15T09:47:39.162Z,8.37
2023-04-15T09:52:42.954Z,8.40
2023-04-15T09:57:46.286Z,8.07
2023-04-15T10:02:49.987Z,8.13
2023-04-15T10:07:51.913Z,8.63
2023-04-15T10:12:55.561Z,7.93
2023-04-15T10:18:01.749Z,8.43
2023-04-15T10:23:04.899Z,8.37
2023-04-15T10:28:11.182Z,8.30
2023-04-15T10:33:16.094Z,8.53
2023-04-15T10:38:36.732Z,9.00
2023-04-15T10:43:39.254Z,9.73
2023-04-15T10:48:49.419Z,9.57
2023-04-15T10:53:51.265Z,9.20
2023-04-15T10:58:53.218Z,8.50
2023-04-15T11:03:56.480Z,9.67
2023-04-15T11:09:00.369Z,8.27
2023-04-15T11:14:05.119Z,8.73
2023-04-15T11:19:11.081Z,8.90
2023-04-15T11:24:24.562Z,8.30
2023-04-15T11:29:29.602Z,8.03
2023-04-15T11:34:34.559Z,8.00
2023-04-15T11:39:38.070Z,7.97
2023-04-15T11:44:39.755Z,8.37
2023-04-15T11:49:43.326Z,8.40
2023-04-15T11:54:45.093Z,7.73
2023-04-15T11:59:46.816Z,7.90
2023-04-15T12:04:50.011Z,8.60
2023-04-15T12:09:55.422Z,8.10
2023-04-15T12:14:57.522Z,7.90
2023-04-15T12:20:00.689Z,8.37
2023-04-15T12:25:06.323Z,9.30
2023-04-15T12:30:08.821Z,8.43
2023-04-15T12:35:12.697Z,8.17
2023-04-15T12:40:14.849Z,7.60
2023-04-15T12:45:16.921Z,8.43
2023-04-15T12:50:20.351Z,8.93
2023-04-15T12:55:22.461Z,7.33
2023-04-15T13:00:24.540Z,8.10
2023-04-15T13:05:27.644Z,7.10
2023-04-15T13:10:29.998Z,6.63
2023-04-15T13:15:32.424Z,7.03
2023-04-15T13:20:36.636Z,6.00
2023-04-15T13:25:39.498Z,6.17
2023-04-15T13:30:41.729Z,6.00
2023-04-15T13:35:45.425Z,6.10
2023-04-15T13:40:47.844Z,6.17
2023-04-15T13:45:50.268Z,7.27
2023-04-15T13:50:53.700Z,7.07
2023-04-15T13:55:56.519Z,6.90
2023-04-15T14:00:58.738Z,6.60
2023-04-15T14:06:02.090Z,5.97
2023-04-15T14:11:03.921Z,6.03
2023-04-15T14:16:06.106Z,7.13
2023-04-15T14:21:09.196Z,6.70
2023-04-15T14:26:11.273Z,6.73
2023-04-15T14:31:13.040Z,6.63
2023-04-15T14:36:16.850Z,6.97
2023-04-15T14:41:19.030Z,6.83
2023-04-15T14:46:21.462Z,7.07
2023-04-15T14:51:24.908Z,7.43
2023-04-15T14:56:27.096Z,7.30
2023-04-15T15:01:29.148Z,6.17
2023-04-15T15:06:32.880Z,6.73
2023-04-15T15:11:34.688Z,6.00
2023-04-15T15:16:37.618Z,6.80
2023-04-15T15:21:40.751Z,6.10
2023-04-15T15:26:42.733Z,7.00
2023-04-15T15:31:44.867Z,6.83
2023-04-15T15:36:48.552Z,6.63
2023-04-15T15:41:50.357Z,6.27
2023-04-15T15:46:52.182Z,6.60
2023-04-15T15:51:56.060Z,6.73
2023-04-15T15:56:57.796Z,6.73
2023-04-15T16:01:59.749Z,6.70
2023-04-15T16:07:02.924Z,6.70
2023-04-15T16:12:05.027Z,7.07
2023-04-15T16:17:06.717Z,6.50
2023-04-15T16:22:09.882Z,6.77
2023-04-15T16:27:12.545Z,7.17
2023-04-15T16:32:14.639Z,6.93
2023-04-15T16:37:18.104Z,6.87
2023-04-15T16:42:19.868Z,6.97
2023-04-15T16:47:21.767Z,6.40
2023-04-15T16:52:24.863Z,6.60
2023-04-15T16:57:27.191Z,7.70
2023-04-15T17:02:49.355Z,7.57
2023-04-15T17:07:58.427Z,7.40
2023-04-15T17:13:00.182Z,6.53
2023-04-15T17:18:02.184Z,7.63
2023-04-15T17:23:05.989Z,7.07
2023-04-15T17:28:08.417Z,6.20
2023-04-15T17:33:55.952Z,7.07
2023-04-15T17:38:33.729Z,7.00
2023-04-15T17:43:35.483Z,7.03
2023-04-15T17:48:37.664Z,6.70
2023-04-15T17:53:41.196Z,6.53
2023-04-15T17:58:43.226Z,7.20
2023-04-15T18:03:45.913Z,6.23
2023-04-15T18:08:49.039Z,6.57
2023-04-15T18:13:50.914Z,6.40
2023-04-15T18:18:54.131Z,6.00
2023-04-15T18:23:57.210Z,6.37
2023-04-15T18:28:59.199Z,6.63
2023-04-15T18:34:01.389Z,7.00
2023-04-15T18:39:05.279Z,7.00
2023-04-15T18:44:07.744Z,7.80
2023-04-15T18:49:11.585Z,7.70
2023-04-15T18:54:15.916Z,8.47
2023-04-15T18:59:29.801Z,8.63
2023-04-15T19:04:38.743Z,8.17
2023-04-15T19:09:41.992Z,9.47
2023-04-15T19:14:43.760Z,9.50
2023-04-15T19:19:45.845Z,10.40
2023-04-15T19:24:49.542Z,10.50
2023-04-15T19:29:51.986Z,10.07
2023-04-15T19:34:54.068Z,9.83
2023-04-15T19:39:57.160Z,10.13
2023-04-15T19:45:01.590Z,9.67
2023-04-15T19:50:04.338Z,9.93
2023-04-15T19:55:08.719Z,9.47
2023-04-15T20:00:11.551Z,10.53
2023-04-15T20:05:13.419Z,10.03
2023-04-15T20:10:16.551Z,9.30
2023-04-15T20:15:18.363Z,9.40
2023-04-15T20:20:21.125Z,8.83
2023-04-15T20:25:25.272Z,9.23
2023-04-15T20:30:27.425Z,8.73
2023-04-15T20:35:29.351Z,9.27
2023-04-15T20:40:32.477Z,9.90
2023-04-15T20:45:34.396Z,10.30
2023-04-15T20:50:36.546Z,12.03
2023-04-15T20:55:39.598Z,10.80
2023-04-15T21:00:41.977Z,11.53
2023-04-15T21:05:43.841Z,12.20
2023-04-15T21:10:47.128Z,13.67
2023-04-15T21:15:49.224Z,13.50
2023-04-15T21:20:56.801Z,13.97
2023-04-15T21:26:00.246Z,13.43
2023-04-15T21:31:02.902Z,13.33
2023-04-15T21:36:05.540Z,14.77
2023-04-15T21:41:08.843Z,14.27
2023-04-15T21:46:23.469Z,14.00
2023-04-15T21:51:27.408Z,13.87
2023-04-15T21:56:30.722Z,14.87
2023-04-15T22:01:32.850Z,14.13
2023-04-15T22:06:35.355Z,13.07
2023-04-15T22:11:38.769Z,14.20
2023-04-15T22:16:40.498Z,13.17
2023-04-15T22:21:42.812Z,13.53
2023-04-15T22:26:46.255Z,14.13
2023-04-15T22:31:48.658Z,13.57
2023-04-15T22:36:51.965Z,13.50
2023-04-15T22:41:55.462Z,12.97
2023-04-15T22:46:57.191Z,12.73
2023-04-15T22:51:58.938Z,12.60
2023-04-15T22:57:02.571Z,13.17
2023-04-15T23:02:04.753Z,13.47
2023-04-15T23:07:06.543Z,13.87
2023-04-15T23:12:10.169Z,12.90
2023-04-15T23:17:12.181Z,12.53
2023-04-15T23:22:14.225Z,12.97
2023-04-15T23:27:17.719Z,12.57
2023-04-15T23:32:20.093Z,12.70
2023-04-15T23:37:22.066Z,13.63
2023-04-15T23:42:25.582Z,13.93
2023-04-15T23:47:27.562Z,12.80
2023-04-15T23:52:29.741Z,13.93
2023-04-15T23:57:33.229Z,13.63
